Germantown, Tennessee
Current Conditions -  °F | °C
As of 3:50 PM on Monday 26 Jan 2015 (Local Time) from KOLV Reporting Station
Scattered Clouds Scattered Clouds  
Wind Chill: 40°   Ceiling: Unl
Heat Index: 46°   Visibility: 10mi
Dew Point: 32°   Wind: 14mph
Humidity: 57%   Direction: 210°SSW
Pressure: 29.98"   Gusts: NA
Location:  35.1°N, 89.81°W
Report Text: KOLV 262150Z 21012KT 10SM SCT150 08/00 A2998
Loading
Personal Weather Stations






























Interactive Weather Map New forecast layout! Learn more

10-Day Weather Forecast

Advertisements
Track Severe Weather on mobile